Time;durP1;ratioP1;P1;durP2;ratioP2;P2;SDS_P1;SDS_P2;PMS_P1;PMS_P2;Temp;Humidity;BMP_temperature;BMP_pressure;BME280_temperature;BME280_humidity;BME280_pressure;Samples;Min_cycle;Max_cycle;Signal;HPM_P1;HPM_P2
2023/06/16 00:01:15;;;;;;;;;;;;;;;24.93;41.98;100890.52;2297573;77;51470;-73
2023/06/16 00:04:17;;;;;;;;;;;;;;;24.95;41.97;100894.37;2277865;77;22406;-76
2023/06/16 00:07:19;;;;;;;;;;;;;;;24.91;42.02;100891.79;2297539;77;22430;-74
2023/06/16 00:10:21;;;;;;;;;;;;;;;24.91;41.92;100884.49;2254009;77;52417;-74
2023/06/16 00:13:23;;;;;;;;;;;;;;;24.84;42.48;100891.00;2278583;77;50283;-75
2023/06/16 00:16:26;;;;;;;;;;;;;;;24.82;42.41;100889.88;2297426;76;51508;-75
2023/06/16 00:19:28;;;;;;;;;;;;;;;24.82;42.53;100883.12;2298185;76;50499;-75
2023/06/16 00:22:32;;;;;;;;;;;;;;;24.81;42.35;100873.32;2270345;76;51201;-74
2023/06/16 00:25:33;;;;;;;;;;;;;;;24.82;42.31;100873.64;2323209;75;22260;-74
2023/06/16 00:28:35;;;;;;;;;;;;;;;24.80;42.45;100872.20;2322009;76;51509;-74
2023/06/16 00:31:36;;;;;;;;;;;;;;;24.83;42.27;100870.41;2322189;76;50715;-73
2023/06/16 00:34:38;;;;;;;;;;;;;;;24.81;42.64;100866.55;2293081;76;50985;-73
2023/06/16 00:37:39;;;;;;;;;;;;;;;24.78;42.58;100865.11;2322020;76;51499;-74
2023/06/16 00:40:41;;;;;;;;;;;;;;;24.80;42.55;100864.91;2293186;76;51669;-74
2023/06/16 00:43:42;;;;;;;;;;;;;;;24.81;42.65;100861.14;2322080;76;51516;-74
2023/06/16 00:46:44;;;;;;;;;;;;;;;24.78;42.74;100857.53;2322020;76;51418;-73
2023/06/16 00:49:46;;;;;;;;;;;;;;;24.77;42.83;100858.59;2322138;76;51425;-73
2023/06/16 00:52:47;;;;;;;;;;;;;;;24.79;42.85;100853.79;2322014;76;51498;-74
2023/06/16 00:55:50;;;;;;;;;;;;;;;24.83;42.75;100861.76;2313800;76;50265;-73
2023/06/16 00:58:52;;;;;;;;;;;;;;;24.85;42.76;100862.38;2321969;76;50798;-74
2023/06/16 01:01:55;;;;;;;;;;;;;;;24.84;42.75;100853.96;2322084;76;50270;-74
2023/06/16 01:04:57;;;;;;;;;;;;;;;24.85;42.90;100856.14;2322108;76;50327;-74
2023/06/16 01:08:11;;;;;;;;;;;;;;;24.84;42.79;100859.38;2321906;76;50661;-73
2023/06/16 01:11:14;;;;;;;;;;;;;;;24.84;42.78;100847.20;2292757;76;52645;-74
2023/06/16 01:14:20;;;;;;;;;;;;;;;24.85;42.79;100852.08;2322196;76;50715;-75
2023/06/16 01:17:23;;;;;;;;;;;;;;;24.84;42.88;100843.64;2322035;76;51516;-75
2023/06/16 01:20:32;;;;;;;;;;;;;;;24.85;42.92;100847.48;2322050;76;50658;-75
2023/06/16 01:23:35;;;;;;;;;;;;;;;24.89;42.78;100842.45;2292963;76;51112;-75
2023/06/16 01:26:38;;;;;;;;;;;;;;;24.89;42.81;100830.27;2292155;76;50850;-75
2023/06/16 01:29:39;;;;;;;;;;;;;;;24.89;42.61;100831.13;2297446;77;51402;-75
2023/06/16 01:32:43;;;;;;;;;;;;;;;24.90;42.49;100830.59;2297434;77;51436;-75
2023/06/16 01:35:44;;;;;;;;;;;;;;;24.90;42.79;100833.30;2278087;77;51008;-76
2023/06/16 01:38:46;;;;;;;;;;;;;;;24.88;42.67;100832.16;2317487;76;51614;-77
2023/06/16 01:41:48;;;;;;;;;;;;;;;24.88;42.42;100832.69;2322136;76;51423;-77
2023/06/16 01:44:49;;;;;;;;;;;;;;;24.88;42.50;100832.16;2322043;76;51528;-77
2023/06/16 01:47:51;;;;;;;;;;;;;;;24.89;42.35;100833.83;2321757;76;50697;-77
2023/06/16 01:50:53;;;;;;;;;;;;;;;24.90;42.39;100830.06;2321994;76;50810;-77
2023/06/16 01:53:54;;;;;;;;;;;;;;;24.90;42.25;100840.89;2322423;75;51428;-77
2023/06/16 01:56:57;;;;;;;;;;;;;;;24.91;42.29;100837.66;2303804;76;51449;-77
2023/06/16 02:00:03;;;;;;;;;;;;;;;24.91;42.21;100830.35;2278253;77;51283;-77
2023/06/16 02:03:10;;;;;;;;;;;;;;;24.90;42.27;100827.36;2297410;76;51447;-76
2023/06/16 02:06:17;;;;;;;;;;;;;;;24.91;42.28;100826.83;2297173;76;50682;-76
2023/06/16 02:09:18;;;;;;;;;;;;;;;24.90;42.65;100818.41;2297339;76;51782;-76
2023/06/16 02:12:20;;;;;;;;;;;;;;;24.85;43.01;100820.42;2278102;76;52515;-77
2023/06/16 02:15:21;;;;;;;;;;;;;;;24.86;42.83;100819.36;2297389;76;51424;-77
2023/06/16 02:18:24;;;;;;;;;;;;;;;24.83;43.00;100826.58;2297114;76;51372;-77
2023/06/16 02:21:26;;;;;;;;;;;;;;;24.87;42.67;100829.16;2278489;77;50794;-79
2023/06/16 02:24:28;;;;;;;;;;;;;;;24.87;42.84;100814.80;2285269;76;51142;-76
2023/06/16 02:27:29;;;;;;;;;;;;;;;24.83;43.03;100823.87;2319864;76;51492;-77
2023/06/16 02:30:31;;;;;;;;;;;;;;;24.85;42.83;100820.95;2332545;75;50647;-77
2023/06/16 02:33:32;;;;;;;;;;;;;;;24.86;42.78;100814.48;2350739;74;51376;-76
2023/06/16 02:36:36;;;;;;;;;;;;;;;24.86;42.79;100816.66;2306827;75;52511;-76
2023/06/16 02:39:38;;;;;;;;;;;;;;;24.88;42.55;100807.80;2333159;75;51430;-77
2023/06/16 02:42:41;;;;;;;;;;;;;;;24.87;42.74;100808.03;2332850;75;51388;-75
2023/06/16 02:45:43;;;;;;;;;;;;;;;24.87;42.88;100797.20;2350278;74;50425;-76
2023/06/16 02:48:45;;;;;;;;;;;;;;;24.86;42.85;100806.36;2332369;75;51630;-76
2023/06/16 02:51:46;;;;;;;;;;;;;;;24.84;42.87;100802.54;2350224;74;50284;-76
2023/06/16 02:54:48;;;;;;;;;;;;;;;24.86;42.76;100790.94;2289338;76;51451;-76
2023/06/16 02:57:49;;;;;;;;;;;;;;;24.86;42.78;100803.12;2297333;77;50241;-76
2023/06/16 03:00:51;;;;;;;;;;;;;;;24.86;42.64;100803.65;2253550;77;49618;-76
2023/06/16 03:03:53;;;;;;;;;;;;;;;24.87;42.59;100802.62;2278574;76;50653;-75
2023/06/16 03:07:02;;;;;;;;;;;;;;;24.88;42.41;100803.73;2278654;77;51556;-76
2023/06/16 03:10:03;;;;;;;;;;;;;;;24.89;42.35;100808.62;2279785;77;22768;-76
2023/06/16 03:13:04;;;;;;;;;;;;;;;24.88;42.24;100803.73;2279201;76;51237;-76
2023/06/16 03:16:08;;;;;;;;;;;;;;;24.87;42.55;100804.80;2279749;76;50265;-76
2023/06/16 03:19:09;;;;;;;;;;;;;;;24.88;42.25;100800.20;2280769;76;21792;-75
2023/06/16 03:22:11;;;;;;;;;;;;;;;24.88;42.29;100793.44;2299737;75;50464;-76
2023/06/16 03:25:15;;;;;;;;;;;;;;;24.87;42.25;100798.03;2269677;76;51134;-75
2023/06/16 03:28:16;;;;;;;;;;;;;;;24.86;42.18;100797.70;2326251;76;24573;-75
2023/06/16 03:31:18;;;;;;;;;;;;;;;24.85;42.53;100798.77;2281605;78;50704;-76
2023/06/16 03:34:19;;;;;;;;;;;;;;;24.86;42.31;100796.35;2258064;78;51482;-76
2023/06/16 03:37:21;;;;;;;;;;;;;;;24.86;42.17;100793.65;2257663;76;52254;-76
2023/06/16 03:40:22;;;;;;;;;;;;;;;24.86;42.35;100801.77;2257996;78;51320;-76
2023/06/16 03:43:24;;;;;;;;;;;;;;;24.86;42.46;100799.06;2296626;76;50213;-76
2023/06/16 03:46:26;;;;;;;;;;;;;;;24.85;42.18;100797.41;2323523;76;50728;-77
2023/06/16 03:49:28;;;;;;;;;;;;;;;24.84;42.23;100798.48;2295672;76;50150;-76
2023/06/16 03:52:29;;;;;;;;;;;;;;;24.83;42.21;100802.22;2297024;75;51466;-76
2023/06/16 03:55:31;;;;;;;;;;;;;;;24.85;42.12;100796.59;2320084;75;50737;-76
2023/06/16 03:58:33;;;;;;;;;;;;;;;24.84;42.20;100806.59;2282652;76;50617;-75
2023/06/16 04:01:36;;;;;;;;;;;;;;;24.83;42.06;100806.27;2301480;76;50633;-75
2023/06/16 04:04:38;;;;;;;;;;;;;;;24.82;42.04;100803.28;2279822;76;50674;-74
2023/06/16 04:07:39;;;;;;;;;;;;;;;24.83;42.13;100800.86;2297706;77;50543;-74
2023/06/16 04:10:41;;;;;;;;;;;;;;;24.83;42.07;100802.75;2278696;76;50510;-75
2023/06/16 04:13:43;;;;;;;;;;;;;;;24.83;42.06;100800.04;2278906;77;52361;-75
2023/06/16 04:16:44;;;;;;;;;;;;;;;24.82;42.08;100801.10;2295279;75;50836;-75
2023/06/16 04:19:46;;;;;;;;;;;;;;;24.83;42.10;100801.39;2285571;76;50612;-75
2023/06/16 04:22:48;;;;;;;;;;;;;;;24.83;42.03;100804.92;2298712;76;50289;-76
2023/06/16 04:25:49;;;;;;;;;;;;;;;24.84;42.01;100809.30;2278686;77;50647;-76
2023/06/16 04:28:53;;;;;;;;;;;;;;;24.82;42.04;100800.57;2297465;77;50341;-76
2023/06/16 04:31:58;;;;;;;;;;;;;;;24.82;42.03;100811.39;2279225;76;22296;-76
2023/06/16 04:35:03;;;;;;;;;;;;;;;24.83;42.08;100802.75;2299229;75;51573;-76
2023/06/16 04:38:04;;;;;;;;;;;;;;;24.85;42.10;100808.77;2313736;76;22409;-76
2023/06/16 04:41:05;;;;;;;;;;;;;;;24.82;42.07;100805.98;2278588;77;50738;-76
2023/06/16 04:44:08;;;;;;;;;;;;;;;24.82;42.14;100806.52;2298077;76;50354;-76
2023/06/16 04:47:09;;;;;;;;;;;;;;;24.82;42.11;100811.39;2278988;77;51585;-76
2023/06/16 04:50:11;;;;;;;;;;;;;;;24.81;42.26;100801.60;2279410;77;50974;-76
2023/06/16 04:53:13;;;;;;;;;;;;;;;24.82;42.38;100803.81;2278503;76;49298;-76
2023/06/16 04:56:15;;;;;;;;;;;;;;;24.82;42.27;100798.39;2278412;77;50748;-75
2023/06/16 04:59:17;;;;;;;;;;;;;;;24.78;42.38;100795.28;2297712;76;50202;-75
2023/06/16 05:02:19;;;;;;;;;;;;;;;24.74;42.53;100796.27;2278428;77;52759;-76
2023/06/16 05:05:20;;;;;;;;;;;;;;;24.71;42.77;100789.09;2302342;75;50275;-76
2023/06/16 05:08:22;;;;;;;;;;;;;;;24.68;42.86;100793.59;2289745;76;51435;-76
2023/06/16 05:11:24;;;;;;;;;;;;;;;24.67;42.82;100791.95;2293936;75;49837;-75
2023/06/16 05:14:26;;;;;;;;;;;;;;;24.63;43.04;100790.19;2323789;75;51754;-75
2023/06/16 05:17:32;;;;;;;;;;;;;;;24.65;43.61;100792.16;2323413;75;50296;-77
2023/06/16 05:20:36;;;;;;;;;;;;;;;24.65;43.57;100790.80;2323950;75;21814;-76
2023/06/16 05:23:37;;;;;;;;;;;;;;;24.66;43.41;100786.22;2324294;75;22014;-76
2023/06/16 05:26:41;;;;;;;;;;;;;;;24.65;43.27;100786.75;2294812;76;50344;-76
2023/06/16 05:29:43;;;;;;;;;;;;;;;24.67;43.12;100786.54;2294498;76;50590;-75
2023/06/16 05:32:47;;;;;;;;;;;;;;;24.67;43.01;100785.19;2294565;75;50019;-76
2023/06/16 05:35:50;;;;;;;;;;;;;;;24.67;42.98;100789.25;2294858;76;51692;-76
2023/06/16 05:38:52;;;;;;;;;;;;;;;24.67;42.88;100788.72;2314908;76;22322;-76
2023/06/16 05:41:53;;;;;;;;;;;;;;;24.66;42.88;100787.57;2294885;76;51446;-76
2023/06/16 05:44:55;;;;;;;;;;;;;;;24.66;42.79;100784.36;2323375;76;51431;-75
2023/06/16 05:47:58;;;;;;;;;;;;;;;24.65;42.77;100792.16;2293991;76;50779;-75
2023/06/16 05:51:00;;;;;;;;;;;;;;;24.66;42.72;100794.33;2293444;76;51171;-76
2023/06/16 05:54:01;;;;;;;;;;;;;;;24.65;42.71;100788.09;2293996;76;50616;-77
2023/06/16 05:57:03;;;;;;;;;;;;;;;24.65;42.89;100794.04;2322585;76;51558;-77
2023/06/16 06:00:06;;;;;;;;;;;;;;;24.66;42.82;100792.98;2293122;76;50613;-75
2023/06/16 06:03:07;;;;;;;;;;;;;;;24.63;42.74;100786.66;2293007;76;52579;-76
2023/06/16 06:06:09;;;;;;;;;;;;;;;24.62;42.76;100789.90;2293635;75;50882;-75
2023/06/16 06:09:11;;;;;;;;;;;;;;;24.64;42.74;100792.39;2324185;75;50307;-76
2023/06/16 06:12:12;;;;;;;;;;;;;;;24.62;42.74;100789.08;2294552;75;50272;-75
2023/06/16 06:15:15;;;;;;;;;;;;;;;24.63;42.79;100798.30;2288763;76;50144;-76
2023/06/16 06:18:17;;;;;;;;;;;;;;;24.61;42.76;100793.66;2307770;76;51602;-74
2023/06/16 06:21:18;;;;;;;;;;;;;;;24.61;42.70;100795.52;2291101;77;51833;-74
2023/06/16 06:24:20;;;;;;;;;;;;;;;24.60;42.74;100800.64;2291205;76;50268;-74
2023/06/16 06:27:22;;;;;;;;;;;;;;;24.60;42.72;100799.28;2265512;77;51733;-74
2023/06/16 06:30:27;;;;;;;;;;;;;;;24.62;42.66;100798.55;2291030;76;50241;-74
2023/06/16 06:33:27;;;;;;;;;;;;;;;24.60;42.70;100796.58;2308183;76;22376;-75
2023/06/16 06:36:29;;;;;;;;;;;;;;;24.60;42.68;100798.75;2294814;76;50197;-74
2023/06/16 06:39:30;;;;;;;;;;;;;;;24.59;42.68;100798.45;2280583;76;49329;-74
2023/06/16 06:42:32;;;;;;;;;;;;;;;24.58;42.90;100804.90;2278366;77;50322;-74
2023/06/16 06:45:34;;;;;;;;;;;;;;;24.60;42.79;100804.70;2297675;76;50728;-73
2023/06/16 06:48:35;;;;;;;;;;;;;;;24.59;42.84;100810.63;2297758;76;50593;-74
2023/06/16 06:51:37;;;;;;;;;;;;;;;24.60;42.87;100817.69;2253958;76;51033;-74
2023/06/16 06:54:38;;;;;;;;;;;;;;;24.59;42.85;100816.58;2297590;76;50221;-74
2023/06/16 06:57:42;;;;;;;;;;;;;;;24.58;42.82;100818.95;2286233;76;50227;-76
2023/06/16 07:00:43;;;;;;;;;;;;;;;24.59;42.79;100819.28;2291688;76;51573;-76
2023/06/16 07:03:45;;;;;;;;;;;;;;;24.59;42.78;100824.69;2267754;75;52337;-76
2023/06/16 07:06:47;;;;;;;;;;;;;;;24.58;42.75;100827.89;2293145;76;51505;-77
2023/06/16 07:09:48;;;;;;;;;;;;;;;24.58;42.73;100832.48;2313785;75;50648;-74
2023/06/16 07:12:50;;;;;;;;;;;;;;;24.59;42.78;100824.69;2322164;76;51282;-75
2023/06/16 07:15:51;;;;;;;;;;;;;;;24.57;42.77;100830.84;2293147;76;52629;-74
2023/06/16 07:18:53;;;;;;;;;;;;;;;24.57;42.77;100834.89;2321981;76;51474;-74
2023/06/16 07:21:56;;;;;;;;;;;;;;;24.55;42.74;100833.22;2322144;76;52238;-73
2023/06/16 07:24:58;;;;;;;;;;;;;;;24.57;42.72;100840.31;2322238;76;50686;-74
2023/06/16 07:27:59;;;;;;;;;;;;;;;24.55;42.71;100838.63;2292770;76;52492;-74
2023/06/16 07:31:01;;;;;;;;;;;;;;;24.56;42.72;100840.84;2293229;76;51507;-74
2023/06/16 07:34:03;;;;;;;;;;;;;;;24.54;42.75;100847.81;2322133;76;51524;-74
2023/06/16 07:37:05;;;;;;;;;;;;;;;24.55;42.70;100835.10;2286792;76;51477;-75
2023/06/16 07:40:08;;;;;;;;;;;;;;;24.55;42.74;100834.57;2267290;76;49299;-74
2023/06/16 07:43:10;;;;;;;;;;;;;;;24.54;42.70;100827.52;2293046;75;50818;-74
2023/06/16 07:46:12;;;;;;;;;;;;;;;24.54;42.68;100828.87;2321997;76;50193;-73
2023/06/16 07:49:16;;;;;;;;;;;;;;;24.55;42.70;100831.05;2293328;76;51573;-74
2023/06/16 07:52:18;;;;;;;;;;;;;;;24.55;42.73;100825.63;2268445;76;51781;-74
2023/06/16 07:55:20;;;;;;;;;;;;;;;24.54;42.75;100830.22;2293204;76;50057;-75
2023/06/16 07:58:22;;;;;;;;;;;;;;;24.55;42.69;100835.10;2321761;75;50275;-74
2023/06/16 08:01:24;;;;;;;;;;;;;;;24.57;42.64;100833.55;2322095;76;51633;-74
2023/06/16 08:04:29;;;;;;;;;;;;;;;24.56;42.63;100831.37;2268077;76;51005;-75
2023/06/16 08:07:28;;;;;;;;;;;;;;;24.55;42.58;100829.16;2321564;75;22553;-73
2023/06/16 08:10:30;;;;;;;;;;;;;;;24.55;42.63;100830.52;2297370;76;50633;-74
2023/06/16 08:13:31;;;;;;;;;;;;;;;24.58;42.60;100829.78;2297418;76;51531;-73
2023/06/16 08:16:33;;;;;;;;;;;;;;;24.57;42.61;100831.66;2277857;76;52466;-74
2023/06/16 08:19:35;;;;;;;;;;;;;;;24.58;42.57;100823.02;2297520;76;51512;-73
2023/06/16 08:22:36;;;;;;;;;;;;;;;24.57;42.65;100826.25;2278255;77;51391;-74
2023/06/16 08:25:38;;;;;;;;;;;;;;;24.58;42.77;100832.48;2297433;76;50564;-75
2023/06/16 08:28:40;;;;;;;;;;;;;;;24.57;42.73;100826.78;2297341;76;51252;-75
2023/06/16 08:31:41;;;;;;;;;;;;;;;24.55;42.75;100826.45;2297537;76;51692;-75
2023/06/16 08:34:43;;;;;;;;;;;;;;;24.55;42.71;100810.23;2278358;77;51404;-75
2023/06/16 08:37:45;;;;;;;;;;;;;;;24.58;42.72;100808.95;2310645;75;51481;-73
2023/06/16 08:40:46;;;;;;;;;;;;;;;24.62;42.52;100802.60;2292972;76;53029;-75
2023/06/16 08:43:51;;;;;;;;;;;;;;;24.64;42.63;100799.98;2322031;76;50793;-75
2023/06/16 08:46:52;;;;;;;;;;;;;;;24.66;42.59;100801.95;2321996;76;50285;-73
2023/06/16 08:49:56;;;;;;;;;;;;;;;24.65;42.57;100804.86;2322033;76;50197;-73
2023/06/16 08:52:58;;;;;;;;;;;;;;;24.64;42.61;100809.98;2322590;76;22239;-74
2023/06/16 08:56:03;;;;;;;;;;;;;;;24.63;42.63;100820.48;2322113;76;50456;-73
2023/06/16 08:59:05;;;;;;;;;;;;;;;24.60;42.68;100820.40;2321920;76;51495;-72
2023/06/16 09:02:07;;;;;;;;;;;;;;;24.61;42.75;100829.34;2322101;76;51536;-74
2023/06/16 09:05:09;;;;;;;;;;;;;;;24.59;42.85;100830.10;2267889;75;50977;-73
2023/06/16 09:08:11;;;;;;;;;;;;;;;24.58;42.87;100825.19;2288128;76;50690;-74
2023/06/16 09:11:13;;;;;;;;;;;;;;;24.57;42.91;100824.08;2322636;76;50415;-74
2023/06/16 09:14:14;;;;;;;;;;;;;;;24.57;42.93;100826.25;2323024;76;50245;-74
2023/06/16 09:17:18;;;;;;;;;;;;;;;24.58;42.99;100823.02;2293049;76;52440;-75
2023/06/16 09:20:22;;;;;;;;;;;;;;;24.57;42.98;100826.78;2321423;76;51476;-75
2023/06/16 09:23:27;;;;;;;;;;;;;;;24.56;42.92;100828.66;2322120;76;22359;-73
2023/06/16 09:26:32;;;;;;;;;;;;;;;24.55;42.96;100826.45;2321933;76;51493;-73
2023/06/16 09:29:33;;;;;;;;;;;;;;;24.57;42.96;100824.90;2320122;76;50048;-73
2023/06/16 09:32:38;;;;;;;;;;;;;;;24.57;42.93;100824.08;2292911;76;51168;-73
2023/06/16 09:35:40;;;;;;;;;;;;;;;24.55;42.96;100830.52;2293539;75;51660;-73
2023/06/16 09:38:42;;;;;;;;;;;;;;;24.57;42.96;100835.72;2313376;76;50690;-74
2023/06/16 09:41:43;;;;;;;;;;;;;;;24.59;42.89;100831.45;2321993;76;51435;-74
2023/06/16 09:44:45;;;;;;;;;;;;;;;24.58;42.95;100836.55;2293262;76;50277;-75
2023/06/16 09:47:48;;;;;;;;;;;;;;;24.57;42.93;100845.19;2321833;76;51553;-74
2023/06/16 09:50:51;;;;;;;;;;;;;;;24.59;42.93;100838.22;2293101;76;50774;-75
2023/06/16 09:53:53;;;;;;;;;;;;;;;24.58;42.88;100837.37;2322205;76;50673;-75
2023/06/16 09:56:59;;;;;;;;;;;;;;;24.61;42.86;100840.16;2284247;76;49607;-75
2023/06/16 10:00:00;;;;;;;;;;;;;;;24.60;42.84;100834.45;2290655;76;50516;-75
2023/06/16 10:03:02;;;;;;;;;;;;;;;24.62;42.92;100835.07;2322050;75;51532;-75
2023/06/16 10:06:05;;;;;;;;;;;;;;;24.62;42.83;100833.19;2321851;76;50629;-76
2023/06/16 10:09:07;;;;;;;;;;;;;;;24.64;42.86;100833.80;2293089;75;50789;-76
2023/06/16 10:12:09;;;;;;;;;;;;;;;24.64;42.86;100841.09;2321989;75;51504;-75
2023/06/16 10:15:11;;;;;;;;;;;;;;;24.64;42.85;100843.80;2321566;76;50614;-75
2023/06/16 10:18:13;;;;;;;;;;;;;;;24.65;42.87;100831.92;2267398;76;51762;-75
2023/06/16 10:21:14;;;;;;;;;;;;;;;24.64;42.92;100832.45;2283990;76;52924;-75
2023/06/16 10:24:16;;;;;;;;;;;;;;;24.64;42.86;100831.62;2316052;75;50631;-74
2023/06/16 10:27:18;;;;;;;;;;;;;;;24.65;42.84;100834.09;2304387;75;50370;-75
2023/06/16 10:30:19;;;;;;;;;;;;;;;24.65;42.81;100828.69;2308872;75;50189;-75
2023/06/16 10:33:28;;;;;;;;;;;;;;;24.65;42.82;100823.27;2295208;76;52346;-75
2023/06/16 10:36:31;;;;;;;;;;;;;;;24.65;42.82;100835.98;2296788;76;50769;-76
2023/06/16 10:39:35;;;;;;;;;;;;;;;24.62;42.87;100827.77;2295503;76;51587;-75
2023/06/16 10:42:37;;;;;;;;;;;;;;;24.63;42.87;100824.55;2323204;76;50888;-75
2023/06/16 10:45:39;;;;;;;;;;;;;;;24.62;42.93;100821.55;2270549;76;51172;-74
2023/06/16 10:48:57;;;;;;;;;;;;;;;24.62;42.91;100829.66;2324617;75;51530;-74
2023/06/16 10:51:59;;;;;;;;;;;;;;;24.61;42.93;100836.10;2324830;75;51498;-74
2023/06/16 10:55:05;;;;;;;;;;;;;;;24.61;42.84;100833.39;2324843;75;50323;-75
2023/06/16 10:58:20;;;;;;;;;;;;;;;24.61;42.83;100822.08;2286028;76;52309;-75
2023/06/16 11:01:23;;;;;;;;;;;;;;;24.62;42.78;100829.13;2300672;76;50417;-75
2023/06/16 11:04:25;;;;;;;;;;;;;;;24.60;42.87;100821.75;2297454;76;51607;-75
2023/06/16 11:07:27;;;;;;;;;;;;;;;24.61;42.87;100829.34;2298924;75;51572;-77
2023/06/16 11:10:28;;;;;;;;;;;;;;;24.62;42.85;100833.72;2263150;76;52106;-75
2023/06/16 11:13:32;;;;;;;;;;;;;;;24.62;42.74;100826.42;2322146;76;50405;-74
2023/06/16 11:16:34;;;;;;;;;;;;;;;24.63;42.74;100824.01;2284395;76;50259;-75
2023/06/16 11:19:37;;;;;;;;;;;;;;;24.63;42.76;100817.78;2280420;76;51534;-74
2023/06/16 11:22:39;;;;;;;;;;;;;;;24.63;42.71;100829.42;2257301;77;51371;-74
2023/06/16 11:25:41;;;;;;;;;;;;;;;24.62;42.77;100818.84;2257330;78;52467;-75
2023/06/16 11:28:43;;;;;;;;;;;;;;;24.63;42.72;100820.48;2285188;77;51481;-74
2023/06/16 11:31:45;;;;;;;;;;;;;;;24.63;42.63;100825.89;2285478;78;50378;-75
2023/06/16 11:34:46;;;;;;;;;;;;;;;24.63;42.62;100827.25;2257430;76;49414;-75
2023/06/16 11:37:51;;;;;;;;;;;;;;;24.63;42.61;100831.30;2291305;76;50256;-75
2023/06/16 11:40:54;;;;;;;;;;;;;;;24.64;42.58;100820.28;2301823;76;51568;-75
2023/06/16 11:43:55;;;;;;;;;;;;;;;24.65;42.57;100823.80;2297292;76;50443;-75
2023/06/16 11:46:57;;;;;;;;;;;;;;;24.65;42.57;100815.16;2277894;77;52347;-76
2023/06/16 11:49:59;;;;;;;;;;;;;;;24.66;42.56;100809.22;2297423;77;50763;-76
2023/06/16 11:53:01;;;;;;;;;;;;;;;24.66;42.50;100816.83;2297368;76;50374;-74
2023/06/16 11:56:04;;;;;;;;;;;;;;;24.66;42.46;100813.27;2297329;76;50345;-75
2023/06/16 11:59:08;;;;;;;;;;;;;;;24.66;42.49;100807.36;2277894;77;53914;-75
2023/06/16 12:02:09;;;;;;;;;;;;;;;24.65;42.51;100819.75;2278573;76;23760;-76
2023/06/16 12:05:18;;;;;;;;;;;;;;;24.63;42.52;100812.37;2297424;76;50406;-76
2023/06/16 12:08:36;;;;;;;;;;;;;;;24.63;42.55;100819.13;2305952;75;50820;-75
2023/06/16 12:11:44;;;;;;;;;;;;;;;24.62;42.58;100825.60;2264428;78;51439;-76
2023/06/16 12:14:41;;;;;;;;;;;;;;;24.61;42.56;100827.98;2218862;79;22316;-76
2023/06/16 12:17:43;;;;;;;;;;;;;;;24.60;42.55;100834.45;2219294;80;50299;-76
2023/06/16 12:20:45;;;;;;;;;;;;;;;24.60;42.55;100830.39;2214529;79;51362;-76
2023/06/16 12:23:48;;;;;;;;;;;;;;;24.59;42.54;100828.75;2139176;81;53808;-76
2023/06/16 12:26:53;;;;;;;;;;;;;;;24.59;42.55;100828.75;2198023;78;51487;-75
2023/06/16 12:29:58;;;;;;;;;;;;;;;24.59;42.56;100830.92;2196885;79;51223;-75
2023/06/16 12:33:01;;;;;;;;;;;;;;;24.59;42.51;100821.45;2183140;80;51651;-76
2023/06/16 12:36:09;;;;;;;;;;;;;;;24.60;42.45;100820.92;2194159;80;52891;-75
2023/06/16 12:39:17;;;;;;;;;;;;;;;24.59;42.46;100827.39;2220657;79;51590;-76
2023/06/16 12:42:20;;;;;;;;;;;;;;;24.60;42.49;100823.10;2219525;80;50773;-75
2023/06/16 12:45:22;;;;;;;;;;;;;;;24.61;42.49;100820.72;2231999;78;50506;-76
2023/06/16 12:48:23;;;;;;;;;;;;;;;24.61;42.52;100830.19;2257036;77;50633;-76
2023/06/16 12:51:25;;;;;;;;;;;;;;;24.60;42.55;100823.63;2233574;79;51526;-75
2023/06/16 12:54:27;;;;;;;;;;;;;;;24.59;42.56;100823.34;2258374;77;50732;-76
2023/06/16 12:57:28;;;;;;;;;;;;;;;24.59;42.53;100820.63;2253435;77;50014;-77
2023/06/16 13:00:30;;;;;;;;;;;;;;;24.59;42.64;100823.34;2270806;77;50291;-77
2023/06/16 13:03:31;;;;;;;;;;;;;;;24.59;42.56;100821.45;2253588;77;50286;-77
2023/06/16 13:06:33;;;;;;;;;;;;;;;24.59;42.52;100816.05;2249388;77;51541;-77
2023/06/16 13:09:35;;;;;;;;;;;;;;;24.59;42.57;100816.05;2280896;77;50155;-76
2023/06/16 13:12:36;;;;;;;;;;;;;;;24.62;42.60;100808.02;2253074;77;51413;-76
2023/06/16 13:15:38;;;;;;;;;;;;;;;24.63;42.53;100805.60;2281856;76;50268;-76
2023/06/16 13:18:39;;;;;;;;;;;;;;;24.64;42.52;100804.57;2260245;76;50253;-75
2023/06/16 13:21:41;;;;;;;;;;;;;;;24.62;42.64;100802.08;2251452;77;50761;-76
2023/06/16 13:24:43;;;;;;;;;;;;;;;24.64;42.52;100800.52;2253318;77;51599;-76
2023/06/16 13:27:45;;;;;;;;;;;;;;;24.64;42.61;100793.22;2290373;77;50643;-76
2023/06/16 13:30:47;;;;;;;;;;;;;;;24.64;42.60;100801.86;2257418;77;50524;-77
2023/06/16 13:33:49;;;;;;;;;;;;;;;24.64;42.53;100797.81;2259345;77;51240;-77
2023/06/16 13:36:51;;;;;;;;;;;;;;;24.65;42.50;100800.28;2222656;78;51658;-76
2023/06/16 13:39:53;;;;;;;;;;;;;;;24.65;42.54;100796.75;2200133;80;51484;-75
2023/06/16 13:42:54;;;;;;;;;;;;;;;24.65;42.43;100788.63;2222263;79;51499;-75
2023/06/16 13:45:56;;;;;;;;;;;;;;;24.65;42.37;100783.22;2213262;79;50633;-75
2023/06/16 13:48:57;;;;;;;;;;;;;;;24.66;42.33;100788.92;2191859;78;53187;-76
2023/06/16 13:52:00;;;;;;;;;;;;;;;24.65;42.30;100785.92;2258132;78;51446;-76
2023/06/16 13:55:01;;;;;;;;;;;;;;;24.65;42.29;100787.28;2258663;78;51478;-76
2023/06/16 13:58:03;;;;;;;;;;;;;;;24.63;42.32;100785.31;2256721;77;50684;-75
2023/06/16 14:01:05;;;;;;;;;;;;;;;24.64;42.29;100785.63;2254420;78;51448;-75
2023/06/16 14:04:06;;;;;;;;;;;;;;;24.64;42.28;100781.58;2231294;79;51413;-76
2023/06/16 14:07:08;;;;;;;;;;;;;;;24.65;42.29;100774.57;2240630;77;50281;-76
2023/06/16 14:10:09;;;;;;;;;;;;;;;24.65;42.24;100777.81;2258552;77;50422;-76
2023/06/16 14:13:12;;;;;;;;;;;;;;;24.65;42.21;100769.16;2236105;78;50444;-76
2023/06/16 14:16:13;;;;;;;;;;;;;;;24.66;42.20;100764.57;2254779;77;50759;-76
2023/06/16 14:19:15;;;;;;;;;;;;;;;24.67;42.16;100767.59;2227588;78;51527;-75
2023/06/16 14:22:17;;;;;;;;;;;;;;;24.65;42.17;100759.69;2223628;78;50396;-75
2023/06/16 14:25:18;;;;;;;;;;;;;;;24.66;42.11;100756.45;2199917;79;49603;-76
2023/06/16 14:28:20;;;;;;;;;;;;;;;24.70;42.09;100759.03;2233106;77;50268;-75
2023/06/16 14:31:23;;;;;;;;;;;;;;;24.69;42.05;100758.74;2258408;77;50292;-75
2023/06/16 14:34:26;;;;;;;;;;;;;;;24.67;42.08;100750.83;2258795;78;51689;-76
2023/06/16 14:37:28;;;;;;;;;;;;;;;24.64;42.23;100751.28;2236941;78;22358;-77
2023/06/16 14:40:29;;;;;;;;;;;;;;;24.64;42.21;100755.34;2235956;78;50716;-75
2023/06/16 14:43:31;;;;;;;;;;;;;;;24.64;42.13;100754.52;2258873;77;51551;-76
2023/06/16 14:46:33;;;;;;;;;;;;;;;24.63;42.16;100750.14;2258691;77;51488;-75
2023/06/16 14:49:34;;;;;;;;;;;;;;;24.62;42.21;100754.72;2211613;78;52284;-75
2023/06/16 14:52:36;;;;;;;;;;;;;;;24.61;42.16;100752.23;2258271;77;51421;-75
2023/06/16 14:55:37;;;;;;;;;;;;;;;24.62;42.24;100753.91;2257512;77;51421;-76
2023/06/16 14:58:39;;;;;;;;;;;;;;;24.61;42.24;100742.76;2256277;77;51438;-75
2023/06/16 15:01:40;;;;;;;;;;;;;;;24.62;42.25;100743.08;2209688;79;50987;-76
2023/06/16 15:04:42;;;;;;;;;;;;;;;24.62;42.24;100739.84;2233922;78;50156;-76
2023/06/16 15:07:44;;;;;;;;;;;;;;;24.62;42.22;100734.44;2279025;77;50302;-75
2023/06/16 15:10:45;;;;;;;;;;;;;;;24.63;42.19;100732.02;2256878;77;50561;-76
2023/06/16 15:13:47;;;;;;;;;;;;;;;24.63;42.22;100731.20;2247006;77;50280;-75
2023/06/16 15:16:48;;;;;;;;;;;;;;;24.55;42.74;100727.71;2257634;77;50720;-74
2023/06/16 15:19:50;;;;;;;;;;;;;;;24.59;43.08;100724.59;2268051;77;50724;-76
2023/06/16 15:22:52;;;;;;;;;;;;;;;24.60;43.19;100716.77;2254990;78;51438;-74
2023/06/16 15:25:53;;;;;;;;;;;;;;;24.58;43.48;100712.09;2238463;77;52366;-75
2023/06/16 15:28:55;;;;;;;;;;;;;;;24.57;43.72;100705.86;2239997;77;51475;-75
2023/06/16 15:31:57;;;;;;;;;;;;;;;24.58;43.80;100709.39;2264035;77;50658;-74
2023/06/16 15:34:58;;;;;;;;;;;;;;;24.58;43.77;100702.63;2305117;75;50321;-74